Time;durP1;ratioP1;P1;durP2;ratioP2;P2;SDS_P1;SDS_P2;PMS_P1;PMS_P2;Temp;Humidity;BMP_temperature;BMP_pressure;BME280_temperature;BME280_humidity;BME280_pressure;Samples;Min_cycle;Max_cycle;Signal;HPM_P1;HPM_P2
2023/01/03 00:02:17;;;;;;;1.40;0.93;;;11.60;99.90;;;;;;5034077;28;20277;-64
2023/01/03 00:04:43;;;;;;;1.13;1.00;;;11.60;99.90;;;;;;5033741;28;20626;-64
2023/01/03 00:07:10;;;;;;;1.17;0.97;;;11.50;99.90;;;;;;5034238;28;20210;-64
2023/01/03 00:09:37;;;;;;;1.67;1.50;;;11.50;99.90;;;;;;5033891;28;20252;-64
2023/01/03 00:14:50;;;;;;;2.50;1.03;;;11.30;99.90;;;;;;5033579;28;20320;-64
2023/01/03 00:17:18;;;;;;;1.63;1.10;;;11.30;99.90;;;;;;5033630;28;20470;-64
2023/01/03 00:19:45;;;;;;;1.10;1.00;;;11.30;99.90;;;;;;5033663;28;20296;-64
2023/01/03 00:22:14;;;;;;;1.30;0.90;;;11.30;99.90;;;;;;5033288;28;20233;-63
2023/01/03 00:24:40;;;;;;;0.90;0.80;;;11.30;99.90;;;;;;5033145;28;20209;-64
2023/01/03 00:27:07;;;;;;;1.60;1.10;;;11.30;99.90;;;;;;5033226;28;20206;-64
2023/01/03 00:29:34;;;;;;;1.20;0.63;;;11.30;99.90;;;;;;5033355;28;20203;-64
2023/01/03 00:32:02;;;;;;;1.63;0.87;;;11.30;99.90;;;;;;5033131;28;20217;-64
2023/01/03 00:34:30;;;;;;;1.77;1.03;;;11.30;99.90;;;;;;5033053;28;20526;-64
2023/01/03 00:36:57;;;;;;;0.97;0.70;;;11.30;99.90;;;;;;5033915;28;20796;-63
2023/01/03 00:39:24;;;;;;;1.53;0.90;;;11.30;99.90;;;;;;5033042;28;20206;-63
2023/01/03 00:41:51;;;;;;;3.27;0.90;;;11.30;99.90;;;;;;5033112;28;20206;-64
2023/01/03 00:44:18;;;;;;;1.40;0.87;;;11.30;99.90;;;;;;5032571;28;20214;-63
2023/01/03 00:46:45;;;;;;;1.30;0.70;;;11.30;99.90;;;;;;5033020;28;20229;-64
2023/01/03 00:49:13;;;;;;;1.83;0.93;;;11.30;99.90;;;;;;5033141;28;20210;-65
2023/01/03 00:51:41;;;;;;;1.60;1.20;;;11.30;99.90;;;;;;5032818;28;20221;-64
2023/01/03 00:54:10;;;;;;;1.20;0.97;;;11.20;99.90;;;;;;5032543;28;20226;-63
2023/01/03 00:56:39;;;;;;;1.47;1.33;;;11.30;99.90;;;;;;5033613;28;20252;-64
2023/01/03 00:59:07;;;;;;;0.90;0.80;;;11.30;99.90;;;;;;5032841;28;20210;-64
2023/01/03 01:01:36;;;;;;;1.13;0.73;;;11.30;99.90;;;;;;5032627;28;20626;-64
2023/01/03 01:04:05;;;;;;;0.90;0.77;;;11.30;99.90;;;;;;5032472;28;20226;-64
2023/01/03 01:06:35;;;;;;;0.70;0.60;;;11.30;99.90;;;;;;5032766;28;20619;-65
2023/01/03 01:09:04;;;;;;;1.53;1.10;;;11.30;99.90;;;;;;5032865;28;20232;-65
2023/01/03 01:11:31;;;;;;;0.60;0.53;;;11.30;99.90;;;;;;5032511;28;20651;-65
2023/01/03 01:13:58;;;;;;;1.87;0.80;;;11.20;99.90;;;;;;5032191;28;20226;-65
2023/01/03 01:16:27;;;;;;;2.53;1.00;;;11.20;99.90;;;;;;5032406;28;20233;-65
2023/01/03 01:18:55;;;;;;;2.00;0.90;;;11.20;99.90;;;;;;5032411;28;20494;-65
2023/01/03 01:21:23;;;;;;;0.90;0.70;;;11.20;99.90;;;;;;5032250;28;20244;-65
2023/01/03 01:23:52;;;;;;;1.37;0.80;;;11.30;99.90;;;;;;5032139;28;20233;-65
2023/01/03 01:26:21;;;;;;;0.90;0.80;;;11.20;99.90;;;;;;5032315;28;20210;-65
2023/01/03 01:28:49;;;;;;;1.23;0.90;;;11.20;99.90;;;;;;5031927;28;20207;-64
2023/01/03 01:31:19;;;;;;;1.50;0.80;;;11.20;99.90;;;;;;5032124;28;20218;-65
2023/01/03 01:33:46;;;;;;;0.83;0.80;;;11.10;99.90;;;;;;5031687;28;20284;-65
2023/01/03 01:36:17;;;;;;;0.77;0.70;;;11.00;99.90;;;;;;5032215;28;20236;-65
2023/01/03 01:38:44;;;;;;;2.07;1.00;;;11.00;99.90;;;;;;5032258;28;20206;-65
2023/01/03 01:41:14;;;;;;;1.23;0.80;;;11.00;99.90;;;;;;5032088;28;20268;-65
2023/01/03 01:46:42;;;;;;;1.17;0.90;;;11.00;99.90;;;;;;5040029;28;20209;-57
2023/01/03 01:49:16;;;;;;;0.70;0.70;;;11.00;99.90;;;;;;5053458;28;20220;-57
2023/01/03 01:51:43;;;;;;;1.00;0.80;;;11.10;99.90;;;;;;5053128;28;20209;-57
2023/01/03 01:54:11;;;;;;;0.83;0.63;;;11.00;99.90;;;;;;5052784;28;20236;-57
2023/01/03 01:56:43;;;;;;;1.60;0.80;;;11.10;99.90;;;;;;5052903;28;20205;-57
2023/01/03 01:59:11;;;;;;;0.90;0.67;;;11.10;99.90;;;;;;5053445;28;20217;-57
2023/01/03 02:01:39;;;;;;;1.03;0.80;;;11.10;99.90;;;;;;5053463;28;20209;-57
2023/01/03 02:04:11;;;;;;;1.23;0.70;;;11.10;99.90;;;;;;5052819;28;20736;-57
2023/01/03 02:06:38;;;;;;;2.13;0.70;;;11.20;99.90;;;;;;5053470;28;20236;-57
2023/01/03 02:09:05;;;;;;;1.23;0.80;;;11.20;99.90;;;;;;5052879;28;20209;-57
2023/01/03 02:11:43;;;;;;;0.73;0.73;;;11.20;99.90;;;;;;5053319;28;20213;-57
2023/01/03 02:14:32;;;;;;;0.80;0.70;;;11.20;99.90;;;;;;5052937;28;20344;-58
2023/01/03 02:17:07;;;;;;;1.50;0.90;;;11.20;99.90;;;;;;5053820;28;20632;-57
2023/01/03 02:20:02;;;;;;;0.90;0.60;;;11.20;99.90;;;;;;5054092;28;20208;-57
2023/01/03 02:23:08;;;;;;;2.40;0.63;;;11.10;99.90;;;;;;5053576;28;20296;-57
2023/01/03 02:26:05;;;;;;;1.87;0.77;;;11.20;99.90;;;;;;5053065;28;20205;-57
2023/01/03 02:29:00;;;;;;;1.00;0.70;;;11.20;99.90;;;;;;5053435;28;20288;-57
2023/01/03 02:31:35;;;;;;;1.07;0.87;;;11.20;99.90;;;;;;5053318;28;20206;-57
2023/01/03 02:34:08;;;;;;;1.70;0.80;;;11.20;99.90;;;;;;5053952;28;20236;-57
2023/01/03 02:36:46;;;;;;;1.97;0.90;;;11.20;99.90;;;;;;5054535;28;20205;-57
2023/01/03 02:39:25;;;;;;;1.40;0.90;;;11.00;99.90;;;;;;5053842;28;20216;-57
2023/01/03 02:44:45;;;;;;;1.73;0.90;;;11.00;99.90;;;;;;5056941;28;20613;-57
2023/01/03 02:47:15;;;;;;;1.87;0.90;;;11.00;99.90;;;;;;5056768;28;20210;-57
2023/01/03 02:49:44;;;;;;;2.33;0.90;;;11.00;99.90;;;;;;5057097;28;20256;-57
2023/01/03 02:52:14;;;;;;;1.10;0.83;;;10.90;99.90;;;;;;5056664;28;20205;-57
2023/01/03 02:54:48;;;;;;;1.00;0.90;;;10.80;99.90;;;;;;5055672;28;20233;-58
2023/01/03 02:57:18;;;;;;;1.10;0.80;;;10.80;99.90;;;;;;5056262;28;20201;-57
2023/01/03 02:59:47;;;;;;;1.07;0.80;;;10.70;99.90;;;;;;5056714;28;20216;-57
2023/01/03 03:02:18;;;;;;;3.87;0.87;;;10.60;99.90;;;;;;5056120;28;20210;-57
2023/01/03 03:04:47;;;;;;;2.07;1.00;;;10.40;99.90;;;;;;5055463;28;20677;-57
2023/01/03 03:07:18;;;;;;;0.70;0.70;;;10.30;99.90;;;;;;5055494;28;20209;-59
2023/01/03 03:15:16;;;;;;;2.13;1.03;;;10.10;99.90;;;;;;5055657;28;20224;-59
2023/01/03 03:17:46;;;;;;;1.90;0.90;;;10.10;99.90;;;;;;5056177;28;20233;-57
2023/01/03 03:25:51;;;;;;;2.30;1.10;;;9.90;99.90;;;;;;5055928;28;20304;-59
2023/01/03 03:28:35;;;;;;;1.13;0.90;;;9.90;99.90;;;;;;5055718;28;20209;-59
2023/01/03 03:31:06;;;;;;;1.67;1.00;;;9.80;99.90;;;;;;5055303;28;20206;-59
2023/01/03 03:33:39;;;;;;;2.00;1.00;;;9.80;99.90;;;;;;5055197;28;20689;-59
2023/01/03 03:36:12;;;;;;;1.77;1.00;;;9.80;99.90;;;;;;5055555;28;20206;-59
2023/01/03 03:38:42;;;;;;;1.53;1.27;;;9.90;99.90;;;;;;5055659;28;20206;-59
2023/01/03 03:47:17;;;;;;;1.97;1.30;;;9.90;99.90;;;;;;5056021;28;20234;-59
2023/01/03 03:49:48;;;;;;;3.37;1.30;;;9.80;99.90;;;;;;5055962;28;20201;-59
2023/01/03 03:52:17;;;;;;;3.93;1.67;;;9.80;99.90;;;;;;5055202;28;20212;-59
2023/01/03 03:54:51;;;;;;;1.60;1.10;;;9.70;99.90;;;;;;5055340;28;20496;-59
2023/01/03 03:57:22;;;;;;;2.03;1.27;;;9.50;99.90;;;;;;5055391;28;20213;-57
2023/01/03 03:59:54;;;;;;;1.40;1.10;;;9.40;99.90;;;;;;5055476;28;20684;-59
2023/01/03 04:02:24;;;;;;;1.43;1.03;;;9.30;99.90;;;;;;5055126;28;20201;-59
2023/01/03 04:04:57;;;;;;;1.30;1.10;;;9.20;99.90;;;;;;5054834;28;20210;-59
2023/01/03 04:07:24;;;;;;;1.30;1.10;;;9.10;99.90;;;;;;5055253;28;20210;-59
2023/01/03 04:09:51;;;;;;;2.70;1.23;;;9.10;99.90;;;;;;5055182;28;20205;-59
2023/01/03 04:12:18;;;;;;;1.30;1.03;;;9.00;99.90;;;;;;5054448;28;20209;-59
2023/01/03 04:14:45;;;;;;;4.40;2.60;;;9.00;99.90;;;;;;5054200;28;20635;-58
2023/01/03 04:17:11;;;;;;;2.67;1.30;;;8.90;99.90;;;;;;5054528;28;20305;-59
2023/01/03 04:19:38;;;;;;;3.73;1.50;;;8.90;99.90;;;;;;5054600;28;20202;-57
2023/01/03 04:22:06;;;;;;;2.90;1.40;;;8.80;99.90;;;;;;5055060;28;20201;-57
2023/01/03 04:24:33;;;;;;;3.47;2.40;;;8.70;99.90;;;;;;5054869;28;20712;-56
2023/01/03 04:27:00;;;;;;;2.70;1.90;;;8.70;99.90;;;;;;5056093;28;20221;-57
2023/01/03 04:29:27;;;;;;;2.00;1.50;;;8.70;99.90;;;;;;5056433;28;20733;-57
2023/01/03 04:31:53;;;;;;;2.47;1.73;;;8.60;99.90;;;;;;5055808;28;20209;-57
2023/01/03 04:34:20;;;;;;;1.47;1.37;;;8.50;99.90;;;;;;5054734;28;20229;-57
2023/01/03 04:36:47;;;;;;;1.20;1.10;;;8.40;99.90;;;;;;5055379;28;20201;-57
2023/01/03 04:39:15;;;;;;;2.60;1.50;;;8.30;99.90;;;;;;5054870;28;20209;-57
2023/01/03 04:41:42;;;;;;;1.57;1.27;;;8.10;99.90;;;;;;5054627;28;20595;-57
2023/01/03 04:44:08;;;;;;;1.50;1.40;;;8.00;99.90;;;;;;5054081;28;20226;-57
2023/01/03 04:46:36;;;;;;;2.03;1.63;;;7.90;99.90;;;;;;5054169;28;20201;-57
2023/01/03 04:49:05;;;;;;;1.67;1.40;;;7.90;99.90;;;;;;5053863;28;20210;-59
2023/01/03 04:51:32;;;;;;;2.10;1.77;;;7.90;99.90;;;;;;5053978;28;20663;-57
2023/01/03 04:53:59;;;;;;;3.90;2.00;;;7.80;99.90;;;;;;5054229;28;20252;-57
2023/01/03 04:56:29;;;;;;;4.00;2.27;;;7.70;99.90;;;;;;5055059;28;20263;-58
2023/01/03 04:58:57;;;;;;;7.97;5.30;;;7.70;99.90;;;;;;5053822;28;20202;-57
2023/01/03 05:01:24;;;;;;;9.57;6.10;;;7.70;99.90;;;;;;5054606;28;20662;-58
2023/01/03 05:03:51;;;;;;;13.10;7.50;;;7.70;99.90;;;;;;5052995;28;20275;-58
2023/01/03 05:06:18;;;;;;;4.00;1.87;;;7.70;99.90;;;;;;5054348;28;20210;-58
2023/01/03 05:08:46;;;;;;;7.53;3.37;;;7.70;99.90;;;;;;5053813;28;20209;-58
2023/01/03 05:11:13;;;;;;;4.00;1.90;;;7.70;99.90;;;;;;5053707;28;20300;-57
2023/01/03 05:13:41;;;;;;;2.27;1.23;;;7.80;99.90;;;;;;5053773;28;20252;-58
2023/01/03 05:16:10;;;;;;;2.17;1.57;;;7.80;99.90;;;;;;5053890;28;20231;-57
2023/01/03 05:18:37;;;;;;;2.57;1.70;;;7.80;99.90;;;;;;5053809;28;20228;-58
2023/01/03 05:26:34;;;;;;;4.47;3.00;;;7.70;99.90;;;;;;5053776;28;20204;-58
2023/01/03 05:29:02;;;;;;;3.67;2.47;;;7.70;99.90;;;;;;5054013;28;20216;-58
2023/01/03 05:31:29;;;;;;;3.37;2.43;;;7.70;99.90;;;;;;5053644;28;20216;-58
2023/01/03 05:33:55;;;;;;;3.43;2.10;;;7.60;99.90;;;;;;5053514;28;20244;-58
2023/01/03 05:36:22;;;;;;;4.03;2.60;;;7.60;99.90;;;;;;5053831;28;20209;-58
2023/01/03 05:38:49;;;;;;;4.10;2.50;;;7.60;99.90;;;;;;5053513;28;20205;-58
2023/01/03 05:41:58;;;;;;;3.87;2.57;;;7.60;99.90;;;;;;5053388;28;20209;-57
2023/01/03 05:44:06;;;;;;;3.70;2.17;;;7.50;99.90;;;;;;5052806;28;20650;-58
2023/01/03 05:46:33;;;;;;;3.90;2.17;;;7.50;99.90;;;;;;5053894;28;20205;-58
2023/01/03 05:48:59;;;;;;;2.53;1.80;;;7.40;99.90;;;;;;5053107;28;20684;-57
2023/01/03 05:51:26;;;;;;;1.83;1.40;;;7.30;99.90;;;;;;5054179;28;20210;-58
2023/01/03 05:53:53;;;;;;;2.07;1.60;;;7.10;99.90;;;;;;5054448;28;20229;-58
2023/01/03 05:56:20;;;;;;;2.97;1.70;;;6.90;99.90;;;;;;5053408;28;20211;-57
2023/01/03 05:58:46;;;;;;;2.37;1.33;;;6.90;99.90;;;;;;5053528;28;20217;-57
2023/01/03 06:01:15;;;;;;;2.77;1.53;;;6.80;99.90;;;;;;5053989;28;20206;-57
2023/01/03 06:03:44;;;;;;;3.33;1.57;;;6.80;99.90;;;;;;5053282;28;20257;-58
2023/01/03 06:06:12;;;;;;;2.77;1.70;;;6.80;99.90;;;;;;5053735;28;20209;-58
2023/01/03 06:08:39;;;;;;;2.77;1.70;;;6.90;99.90;;;;;;5053312;28;20221;-58
2023/01/03 06:11:06;;;;;;;3.80;2.33;;;6.80;99.90;;;;;;5053723;28;20682;-58
2023/01/03 06:13:33;;;;;;;2.23;2.00;;;6.90;99.90;;;;;;5053729;28;20230;-58
2023/01/03 06:18:49;;;;;;;3.03;1.73;;;6.80;99.90;;;;;;5057929;28;20276;-57
2023/01/03 06:21:15;;;;;;;1.83;1.53;;;6.70;99.90;;;;;;5057251;28;20576;-58
2023/01/03 06:23:44;;;;;;;3.87;1.80;;;6.60;99.90;;;;;;5057396;28;20227;-57
2023/01/03 06:26:11;;;;;;;2.10;1.40;;;6.50;99.90;;;;;;5056396;28;20236;-57
2023/01/03 06:28:37;;;;;;;2.27;1.80;;;6.30;99.90;;;;;;5057633;28;20209;-58
2023/01/03 06:31:05;;;;;;;5.23;1.77;;;6.30;99.90;;;;;;5057390;28;20269;-58
2023/01/03 06:33:31;;;;;;;4.20;1.87;;;6.30;99.90;;;;;;5056646;28;20740;-57
2023/01/03 06:36:02;;;;;;;3.53;2.00;;;6.30;99.90;;;;;;5056404;28;20229;-57
2023/01/03 06:38:29;;;;;;;2.37;1.97;;;6.40;99.90;;;;;;5057101;28;20229;-58
2023/01/03 06:40:56;;;;;;;3.30;2.13;;;6.30;99.90;;;;;;5056833;28;20205;-58
2023/01/03 06:43:22;;;;;;;2.80;2.50;;;6.30;99.90;;;;;;5056506;28;20229;-58
2023/01/03 06:54:06;;;;;;;1.60;1.50;;;5.90;99.90;;;;;;5056904;28;20228;-57
2023/01/03 06:56:32;;;;;;;1.87;1.53;;;5.80;99.90;;;;;;5055798;28;20292;-57
2023/01/03 06:58:59;;;;;;;2.03;1.47;;;5.90;99.90;;;;;;5056886;28;20216;-57
2023/01/03 07:01:26;;;;;;;3.70;1.80;;;6.00;99.90;;;;;;5056501;28;20224;-57
2023/01/03 07:03:53;;;;;;;2.00;1.70;;;6.00;99.90;;;;;;5056291;28;20221;-58
2023/01/03 07:06:21;;;;;;;2.07;1.80;;;6.10;99.90;;;;;;5056162;28;20296;-57
2023/01/03 07:08:48;;;;;;;2.53;1.90;;;6.10;99.90;;;;;;5056757;28;20210;-58
2023/01/03 07:11:15;;;;;;;2.57;1.93;;;6.10;99.90;;;;;;5056692;28;20198;-58
2023/01/03 07:14:01;;;;;;;4.83;2.50;;;6.10;99.90;;;;;;5056059;28;20237;-57
2023/01/03 07:16:29;;;;;;;4.60;2.37;;;6.10;99.90;;;;;;5057162;28;20657;-57
2023/01/03 07:18:57;;;;;;;3.23;2.30;;;6.10;99.90;;;;;;5056079;28;20209;-58
2023/01/03 07:21:27;;;;;;;3.47;2.27;;;6.10;99.90;;;;;;5056625;28;20205;-57
2023/01/03 07:23:54;;;;;;;2.73;1.97;;;6.10;99.90;;;;;;5056209;28;20600;-58
2023/01/03 07:26:23;;;;;;;5.07;2.50;;;6.10;99.90;;;;;;5056218;28;20209;-58
2023/01/03 07:28:50;;;;;;;3.90;2.33;;;6.10;99.90;;;;;;5055472;28;20209;-59
2023/01/03 07:31:17;;;;;;;4.57;2.40;;;6.10;99.90;;;;;;5056506;28;20209;-58
2023/01/03 07:33:44;;;;;;;6.63;2.37;;;6.10;99.90;;;;;;5056509;28;20744;-58
2023/01/03 07:36:13;;;;;;;4.67;2.27;;;6.20;99.90;;;;;;5055925;28;20235;-57
2023/01/03 07:38:43;;;;;;;3.30;2.63;;;6.20;99.90;;;;;;5056656;28;20584;-58
2023/01/03 07:41:11;;;;;;;5.13;2.70;;;6.20;99.90;;;;;;5056370;28;20619;-58
2023/01/03 07:43:40;;;;;;;4.47;2.90;;;6.20;99.90;;;;;;5057000;28;20248;-57
2023/01/03 07:46:09;;;;;;;5.03;3.17;;;6.30;99.90;;;;;;5056063;28;20277;-58
2023/01/03 07:48:37;;;;;;;11.13;8.30;;;6.40;99.90;;;;;;5056177;28;20218;-57
2023/01/03 07:51:06;;;;;;;3.77;2.50;;;6.30;99.90;;;;;;5056650;28;20213;-58
2023/01/03 07:53:33;;;;;;;3.40;2.43;;;6.40;99.90;;;;;;5056252;28;20221;-57
2023/01/03 07:56:07;;;;;;;3.57;2.70;;;6.50;99.90;;;;;;5055826;28;20260;-58
2023/01/03 07:58:35;;;;;;;5.73;2.50;;;6.70;99.90;;;;;;5056087;28;20215;-58
2023/01/03 08:01:04;;;;;;;2.87;2.30;;;6.80;99.90;;;;;;5056517;28;20240;-58
2023/01/03 08:03:31;;;;;;;3.47;2.50;;;6.90;99.90;;;;;;5056713;28;20264;-58
2023/01/03 08:06:00;;;;;;;2.97;2.60;;;7.10;99.90;;;;;;5056752;28;20593;-58
2023/01/03 08:08:27;;;;;;;4.33;2.50;;;7.30;99.90;;;;;;5056753;28;20281;-58
2023/01/03 08:13:39;;;;;;;3.33;2.60;;;7.70;99.90;;;;;;5055995;28;20240;-59
2023/01/03 08:16:09;;;;;;;4.20;2.77;;;7.90;99.90;;;;;;5055451;28;20229;-58
2023/01/03 08:18:36;;;;;;;4.90;2.70;;;8.00;99.90;;;;;;5055964;28;20657;-58
2023/01/03 08:21:03;;;;;;;5.53;2.50;;;8.10;99.90;;;;;;5055097;28;20209;-58
2023/01/03 08:23:30;;;;;;;3.43;2.53;;;8.10;99.90;;;;;;5055279;28;20236;-58
2023/01/03 08:26:01;;;;;;;3.73;2.80;;;8.10;99.90;;;;;;5054720;28;20669;-57
2023/01/03 08:28:28;;;;;;;7.13;3.13;;;8.20;99.90;;;;;;5055001;28;20210;-57
2023/01/03 08:30:57;;;;;;;3.50;2.80;;;8.20;99.90;;;;;;5055480;28;20228;-58
2023/01/03 08:33:26;;;;;;;5.43;2.67;;;8.20;99.90;;;;;;5055200;28;20578;-57
2023/01/03 08:35:56;;;;;;;4.67;2.23;;;8.20;99.90;;;;;;5054514;28;20518;-57
2023/01/03 08:38:27;;;;;;;3.33;2.30;;;8.20;99.90;;;;;;5054518;28;20704;-59
2023/01/03 08:40:54;;;;;;;3.93;2.60;;;8.30;99.90;;;;;;5054923;28;20704;-57
2023/01/03 08:43:21;;;;;;;3.87;2.47;;;8.40;99.90;;;;;;5054433;28;20291;-58
2023/01/03 08:45:49;;;;;;;4.70;2.70;;;8.40;99.90;;;;;;5054218;28;20202;-57
2023/01/03 08:48:21;;;;;;;3.67;2.37;;;8.50;99.90;;;;;;5054738;28;20587;-57
2023/01/03 08:50:48;;;;;;;4.13;2.90;;;8.60;99.90;;;;;;5054073;28;20226;-57
2023/01/03 08:53:14;;;;;;;5.13;2.90;;;8.60;99.90;;;;;;5054137;28;20226;-57
2023/01/03 08:55:41;;;;;;;3.33;2.90;;;8.60;99.90;;;;;;5053928;28;20320;-57
2023/01/03 08:58:08;;;;;;;4.23;2.80;;;8.60;99.90;;;;;;5054589;28;20589;-57
2023/01/03 09:00:36;;;;;;;4.07;3.17;;;8.60;99.90;;;;;;5054208;28;20241;-57
2023/01/03 09:03:03;;;;;;;4.77;3.53;;;8.70;99.90;;;;;;5054328;28;20259;-57
2023/01/03 09:05:31;;;;;;;4.93;3.10;;;8.70;99.90;;;;;;5053514;28;20205;-57
2023/01/03 09:07:57;;;;;;;3.50;3.20;;;8.70;99.90;;;;;;5054372;28;20210;-57
2023/01/03 09:10:24;;;;;;;4.40;3.00;;;8.80;99.90;;;;;;5053739;28;20213;-57
2023/01/03 09:12:51;;;;;;;3.60;2.57;;;8.90;99.90;;;;;;5053824;28;20229;-57
2023/01/03 09:15:19;;;;;;;3.03;2.67;;;9.10;99.90;;;;;;5053480;28;20229;-57
2023/01/03 09:17:48;;;;;;;4.13;2.70;;;9.20;99.90;;;;;;5053731;28;20295;-57
2023/01/03 09:20:16;;;;;;;3.80;2.70;;;9.20;99.90;;;;;;5053642;28;20205;-56
2023/01/03 09:22:46;;;;;;;3.50;2.50;;;9.30;99.90;;;;;;5053692;28;20237;-57
2023/01/03 09:25:13;;;;;;;4.47;2.73;;;9.30;99.90;;;;;;5053305;28;20217;-57
2023/01/03 09:27:45;;;;;;;3.67;2.70;;;9.40;99.90;;;;;;5053423;28;20209;-57
2023/01/03 09:30:12;;;;;;;3.23;2.70;;;9.40;99.90;;;;;;5053750;28;20275;-57
2023/01/03 09:32:39;;;;;;;6.00;2.83;;;9.50;99.90;;;;;;5053415;28;20229;-57
2023/01/03 09:35:06;;;;;;;3.10;2.37;;;9.60;99.90;;;;;;5053736;28;20229;-57
2023/01/03 09:37:33;;;;;;;4.30;2.73;;;9.60;99.90;;;;;;5053786;28;20216;-58
2023/01/03 09:40:01;;;;;;;5.33;2.80;;;9.60;99.90;;;;;;5053769;28;20205;-58
2023/01/03 09:45:16;;;;;;;3.57;2.90;;;9.70;99.90;;;;;;5052880;28;20285;-57
2023/01/03 09:47:44;;;;;;;3.40;3.10;;;9.80;99.90;;;;;;5053519;28;20198;-57
2023/01/03 09:50:19;;;;;;;5.13;3.00;;;9.90;99.90;;;;;;5052629;28;20669;-58
2023/01/03 10:04:25;;;;;;;4.63;2.93;;;10.50;99.90;;;;;;5054561;28;20221;-58
2023/01/03 10:07:04;;;;;;;3.87;2.53;;;10.70;99.90;;;;;;5054016;28;20201;-58
2023/01/03 10:09:39;;;;;;;3.70;2.90;;;10.70;99.90;;;;;;5054417;28;20209;-59
2023/01/03 10:12:23;;;;;;;5.40;2.70;;;10.70;99.90;;;;;;5053920;28;20205;-58
2023/01/03 10:15:06;;;;;;;4.70;2.70;;;10.70;99.90;;;;;;5054734;28;20209;-58
2023/01/03 10:17:42;;;;;;;5.60;2.83;;;10.70;99.90;;;;;;5053781;28;20213;-58
2023/01/03 10:20:25;;;;;;;3.97;2.50;;;10.70;99.90;;;;;;5053861;28;20209;-58
2023/01/03 10:22:55;;;;;;;8.40;4.73;;;10.60;99.90;;;;;;5054367;28;20306;-59
2023/01/03 10:25:23;;;;;;;4.80;3.53;;;10.60;99.90;;;;;;5053709;28;20208;-59
2023/01/03 10:27:55;;;;;;;4.40;2.90;;;10.50;99.90;;;;;;5053533;28;20244;-58
2023/01/03 10:30:36;;;;;;;4.47;3.00;;;10.50;99.90;;;;;;5053485;28;20696;-59
2023/01/03 10:33:32;;;;;;;6.23;3.40;;;10.40;99.90;;;;;;5052864;28;20229;-58
2023/01/03 10:35:59;;;;;;;5.13;3.50;;;10.40;99.90;;;;;;5052457;28;20229;-58
2023/01/03 10:38:27;;;;;;;5.80;3.33;;;10.40;99.90;;;;;;5052833;28;20232;-58
2023/01/03 10:40:57;;;;;;;5.87;3.27;;;10.40;99.90;;;;;;5052529;28;20214;-58
2023/01/03 10:43:31;;;;;;;5.60;3.57;;;10.30;99.90;;;;;;5052503;28;20265;-59
2023/01/03 10:46:00;;;;;;;4.30;3.27;;;10.30;99.90;;;;;;5052463;28;20320;-59
2023/01/03 10:48:36;;;;;;;12.40;5.03;;;10.20;99.90;;;;;;5052420;28;20584;-58
2023/01/03 10:51:05;;;;;;;4.90;3.40;;;10.20;99.90;;;;;;5053509;28;20205;-59
2023/01/03 10:53:37;;;;;;;7.60;3.87;;;10.40;99.90;;;;;;5053462;28;20233;-59
2023/01/03 10:56:05;;;;;;;3.93;3.53;;;10.30;99.90;;;;;;5053071;28;20225;-59
2023/01/03 10:58:33;;;;;;;4.23;3.13;;;10.40;99.90;;;;;;5053745;28;20205;-59
2023/01/03 11:01:17;;;;;;;5.00;3.17;;;10.60;99.90;;;;;;5052593;28;20263;-59
2023/01/03 11:03:44;;;;;;;15.73;6.77;;;10.80;99.90;;;;;;5055039;28;20709;-59
2023/01/03 11:06:14;;;;;;;4.73;3.20;;;10.80;99.90;;;;;;5055597;28;20206;-59
2023/01/03 11:08:44;;;;;;;3.73;2.67;;;10.90;99.90;;;;;;5055343;28;20220;-59
2023/01/03 11:11:30;;;;;;;3.07;2.70;;;10.90;99.90;;;;;;5055823;28;20201;-59
2023/01/03 11:14:15;;;;;;;5.40;2.73;;;10.90;99.90;;;;;;5056058;28;20227;-59
2023/01/03 11:16:42;;;;;;;3.87;2.10;;;11.00;99.90;;;;;;5055688;28;20282;-59
2023/01/03 11:19:18;;;;;;;3.27;2.50;;;11.10;99.90;;;;;;5056497;28;20267;-59
2023/01/03 11:21:50;;;;;;;3.93;2.27;;;11.30;99.90;;;;;;5056082;28;20255;-59
2023/01/03 11:24:28;;;;;;;3.27;2.13;;;11.40;99.90;;;;;;5048223;28;20839;-58
2023/01/03 11:27:02;;;;;;;5.03;2.00;;;11.60;99.90;;;;;;5033014;28;20272;-58
2023/01/03 11:30:00;;;;;;;6.90;1.93;;;11.80;99.90;;;;;;5034523;28;20210;-57
2023/01/03 11:32:40;;;;;;;1.87;1.53;;;11.90;99.90;;;;;;5034163;28;20217;-61
2023/01/03 11:35:30;;;;;;;2.70;1.80;;;12.00;99.90;;;;;;5033848;28;20213;-58
2023/01/03 11:38:06;;;;;;;4.00;1.70;;;12.10;99.90;;;;;;5033762;28;20210;-60
2023/01/03 11:40:43;;;;;;;2.93;2.17;;;12.20;99.90;;;;;;5033711;28;20216;-60
2023/01/03 11:43:25;;;;;;;3.73;1.77;;;12.10;99.90;;;;;;5033675;28;20233;-59
2023/01/03 11:46:13;;;;;;;3.17;1.60;;;12.00;99.90;;;;;;5033583;28;20587;-59
2023/01/03 11:49:04;;;;;;;2.30;1.90;;;12.20;99.90;;;;;;5050969;28;20210;-59
2023/01/03 11:51:39;;;;;;;2.83;1.80;;;12.30;99.90;;;;;;5054065;28;20212;-59
2023/01/03 11:54:13;;;;;;;1.60;1.40;;;12.40;99.90;;;;;;5054986;28;20311;-59
2023/01/03 11:56:43;;;;;;;3.27;1.70;;;12.40;99.90;;;;;;5054332;28;20229;-59
2023/01/03 11:59:27;;;;;;;4.53;1.30;;;12.20;99.90;;;;;;5054725;28;20202;-60
2023/01/03 12:02:24;;;;;;;1.97;0.77;;;12.10;99.90;;;;;;5054642;28;20296;-62
2023/01/03 12:05:06;;;;;;;1.77;0.93;;;12.20;99.90;;;;;;5054001;28;20510;-59
2023/01/03 12:07:46;;;;;;;2.27;0.80;;;12.00;99.90;;;;;;5054403;28;20209;-59
2023/01/03 12:10:19;;;;;;;2.27;1.07;;;12.10;99.90;;;;;;5054569;28;20212;-58
2023/01/03 12:13:05;;;;;;;2.83;1.50;;;12.00;99.90;;;;;;5053226;28;20237;-58
2023/01/03 12:15:39;;;;;;;1.70;0.90;;;12.10;99.90;;;;;;5053090;28;20561;-59
2023/01/03 12:18:18;;;;;;;1.30;0.70;;;12.10;99.90;;;;;;5053023;28;20666;-59
2023/01/03 12:20:51;;;;;;;1.90;1.00;;;11.90;99.90;;;;;;5054727;28;20213;-58
2023/01/03 12:23:33;;;;;;;1.70;1.13;;;11.80;99.90;;;;;;5055180;28;20597;-58
2023/01/03 12:26:03;;;;;;;2.67;1.20;;;11.70;99.90;;;;;;5054562;28;20205;-58
2023/01/03 12:28:35;;;;;;;2.37;1.20;;;11.70;99.90;;;;;;5054285;28;20205;-59
2023/01/03 12:31:08;;;;;;;3.90;1.30;;;12.00;99.90;;;;;;5056432;28;20259;-60
2023/01/03 12:33:43;;;;;;;3.23;1.57;;;12.20;99.90;;;;;;5056220;28;20264;-61
2023/01/03 12:36:24;;;;;;;2.53;1.57;;;12.30;99.90;;;;;;5055071;28;20315;-60
2023/01/03 12:38:58;;;;;;;1.77;1.53;;;12.40;99.90;;;;;;5057037;28;20221;-60
2023/01/03 12:41:33;;;;;;;2.03;1.00;;;12.50;99.90;;;;;;5056880;28;20217;-59
2023/01/03 12:44:07;;;;;;;3.73;1.30;;;12.50;99.90;;;;;;5055887;28;20283;-59
2023/01/03 12:46:40;;;;;;;2.30;1.13;;;12.50;99.90;;;;;;5055520;28;20204;-60
2023/01/03 12:49:15;;;;;;;2.77;1.20;;;12.40;99.90;;;;;;5054543;28;20209;-62
2023/01/03 12:51:41;;;;;;;3.60;1.20;;;12.20;99.90;;;;;;5053891;28;20288;-60
2023/01/03 12:54:26;;;;;;;1.70;1.10;;;12.00;99.90;;;;;;5053179;28;20230;-60
2023/01/03 12:57:13;;;;;;;3.00;1.17;;;12.00;99.90;;;;;;5053694;28;20229;-58
2023/01/03 13:00:00;;;;;;;2.33;1.10;;;12.10;99.90;;;;;;5054841;28;20270;-59
2023/01/03 13:02:41;;;;;;;2.57;1.10;;;12.20;99.90;;;;;;5055449;28;20217;-61
2023/01/03 13:05:17;;;;;;;4.23;1.50;;;12.20;99.90;;;;;;5052614;28;20209;-61
2023/01/03 13:07:48;;;;;;;1.37;1.00;;;12.30;99.90;;;;;;5052703;28;20205;-62
2023/01/03 13:10:19;;;;;;;2.43;1.13;;;12.40;99.90;;;;;;5056690;28;20210;-61
2023/01/03 13:12:51;;;;;;;1.47;1.17;;;12.50;99.90;;;;;;5054445;28;20230;-61
2023/01/03 13:15:27;;;;;;;3.03;1.10;;;12.50;99.90;;;;;;5051407;28;20686;-63
2023/01/03 13:17:54;;;;;;;2.30;1.37;;;12.40;99.90;;;;;;5035105;28;20240;-62
2023/01/03 13:20:35;;;;;;;3.00;1.07;;;12.40;99.90;;;;;;5034306;28;20210;-60
2023/01/03 13:23:32;;;;;;;2.20;1.23;;;12.50;99.90;;;;;;5033995;28;20236;-60
2023/01/03 13:26:21;;;;;;;5.53;1.40;;;12.60;99.90;;;;;;5034486;28;20689;-60
2023/01/03 13:28:47;;;;;;;4.17;1.80;;;12.80;99.90;;;;;;5034491;28;20670;-58
2023/01/03 13:31:45;;;;;;;1.90;1.40;;;12.70;99.90;;;;;;5035449;28;20217;-57
2023/01/03 13:34:34;;;;;;;2.97;1.67;;;12.80;99.90;;;;;;5035765;28;20604;-57
2023/01/03 13:37:17;;;;;;;2.70;1.13;;;12.90;99.90;;;;;;5036062;28;20230;-56
2023/01/03 13:40:24;;;;;;;2.07;1.07;;;13.00;99.90;;;;;;5034914;28;20217;-58
2023/01/03 13:43:02;;;;;;;3.57;1.30;;;13.10;99.90;;;;;;5048227;22;20737;-63
2023/01/03 13:45:53;;;;;;;2.90;1.17;;;13.10;99.90;;;;;;5023129;28;20217;-62
2023/01/03 13:48:24;;;;;;;2.70;1.10;;;13.20;99.90;;;;;;5013929;28;20565;-62
2023/01/03 13:51:32;;;;;;;7.33;4.70;;;13.20;99.90;;;;;;5012550;28;20210;-62
2023/01/03 13:54:03;;;;;;;3.43;1.37;;;13.10;99.90;;;;;;4972382;28;20647;-61
2023/01/03 13:56:52;;;;;;;4.80;2.37;;;13.00;99.90;;;;;;4992296;28;20227;-61
2023/01/03 13:59:25;;;;;;;5.60;2.20;;;13.00;99.90;;;;;;4992495;28;20298;-62
2023/01/03 14:02:13;;;;;;;6.77;2.37;;;13.00;99.90;;;;;;4992934;28;20211;-62
2023/01/03 14:05:19;;;;;;;4.27;1.40;;;13.10;99.90;;;;;;4992678;28;20774;-62
2023/01/03 14:08:21;;;;;;;2.37;1.07;;;13.10;99.90;;;;;;4988992;28;20214;-62
2023/01/03 14:11:03;;;;;;;2.60;1.47;;;13.00;99.90;;;;;;4990347;28;20202;-62
2023/01/03 14:13:38;;;;;;;2.90;1.53;;;13.00;99.90;;;;;;4992707;28;20234;-61
2023/01/03 14:16:16;;;;;;;2.20;1.20;;;13.00;99.90;;;;;;4996113;28;20207;-62